Accueil
METAR-TAF:

METAR-TAF

Aéroports :

Villacoublay, France

Base aérienne 107 Villacoublay

latitude: 48-46N, longitude: 002-12E, altitude: 177 m

Observation

Le bulletin a été fait il y a 15 minutes, à 06:30 UTC
Vent 4 kt de ouest/sud-ouest
Température 17°C
Humidité 72%
Pression 1013 hPa
Visibilité 10 km ou plus
pas de nuages en-dessous de 1500 mètres et pas de cumulonimbus.

METAR: LFPV 220630Z AUTO 24004KT CAVOK 17/12 Q1013 NOSIG

Heure: 08:45 (06:45 UTC)

Prévision

Le bulletin a été fait il y a 4 heures et 45 minutes, à 02:00 UTC
Prévision valable du 22 à 03 UTC au 23 à 03 UTC
Vent 3 kt de sud-est
Visibilité 10 km ou plus
pas de nuages en-dessous de 1500 mètres et pas de cumulonimbus.

TAF: LFPV 220200Z 2203/2303 13003KT CAVOK

Observations et prévisions météorologiques de plus de 4000 aéroports (messages METAR et TAF).

Les stations disponibles sont représentées par des disques jaunes et rouges sur la carte.

Passer la souris dessus pour voir le nom de la station.

Cliquer dessus pour voir les observations et prévisions météorologiques.

Pour changer de carte: cliquez sur les boutons verts avec une croix noire pour zoomer, sur le bouton vert avec un tiret pour effectuer un zoom arrière, ou sur les flèches vertes pour les cartes adjacentes.


METAR-TAF: